sensor_id;sensor_type;location;lat;lon;timestamp;P1;durP1;ratioP1;P2;durP2;ratioP2
54705;SDS011;40603;48.774;8.916;2022-08-14T00:01:32;6.32;;;2.58;;
54705;SDS011;40603;48.774;8.916;2022-08-14T00:03:58;5.22;;;2.92;;
54705;SDS011;40603;48.774;8.916;2022-08-14T00:06:23;4.55;;;2.70;;
54705;SDS011;40603;48.774;8.916;2022-08-14T00:08:48;4.40;;;2.60;;
54705;SDS011;40603;48.774;8.916;2022-08-14T00:11:14;5.20;;;2.92;;
54705;SDS011;40603;48.774;8.916;2022-08-14T00:13:39;3.47;;;2.45;;
54705;SDS011;40603;48.774;8.916;2022-08-14T00:16:05;2.67;;;2.33;;
54705;SDS011;40603;48.774;8.916;2022-08-14T00:18:30;6.15;;;2.20;;
54705;SDS011;40603;48.774;8.916;2022-08-14T00:20:56;4.30;;;2.70;;
54705;SDS011;40603;48.774;8.916;2022-08-14T00:23:22;8.60;;;2.50;;
54705;SDS011;40603;48.774;8.916;2022-08-14T00:25:49;3.53;;;2.50;;
54705;SDS011;40603;48.774;8.916;2022-08-14T00:28:16;4.82;;;2.30;;
54705;SDS011;40603;48.774;8.916;2022-08-14T00:30:41;4.25;;;2.10;;
54705;SDS011;40603;48.774;8.916;2022-08-14T00:33:07;7.57;;;2.80;;
54705;SDS011;40603;48.774;8.916;2022-08-14T00:35:33;3.35;;;2.70;;
54705;SDS011;40603;48.774;8.916;2022-08-14T00:37:59;3.03;;;2.38;;
54705;SDS011;40603;48.774;8.916;2022-08-14T00:40:24;9.55;;;2.50;;
54705;SDS011;40603;48.774;8.916;2022-08-14T00:42:50;3.20;;;2.60;;
54705;SDS011;40603;48.774;8.916;2022-08-14T00:45:15;3.13;;;2.22;;
54705;SDS011;40603;48.774;8.916;2022-08-14T00:47:42;6.65;;;2.58;;
54705;SDS011;40603;48.774;8.916;2022-08-14T00:50:09;6.80;;;2.92;;
54705;SDS011;40603;48.774;8.916;2022-08-14T00:52:36;6.75;;;2.60;;
54705;SDS011;40603;48.774;8.916;2022-08-14T00:55:02;2.92;;;2.25;;
54705;SDS011;40603;48.774;8.916;2022-08-14T00:57:31;4.22;;;2.60;;
54705;SDS011;40603;48.774;8.916;2022-08-14T00:59:57;9.32;;;2.97;;
54705;SDS011;40603;48.774;8.916;2022-08-14T01:02:23;4.50;;;2.70;;
54705;SDS011;40603;48.774;8.916;2022-08-14T01:04:50;3.38;;;2.58;;
54705;SDS011;40603;48.774;8.916;2022-08-14T01:07:16;3.17;;;2.22;;
54705;SDS011;40603;48.774;8.916;2022-08-14T01:09:45;2.20;;;2.00;;
54705;SDS011;40603;48.774;8.916;2022-08-14T01:12:12;2.47;;;2.03;;
54705;SDS011;40603;48.774;8.916;2022-08-14T01:14:39;3.33;;;2.45;;
54705;SDS011;40603;48.774;8.916;2022-08-14T01:17:04;2.72;;;2.17;;
54705;SDS011;40603;48.774;8.916;2022-08-14T01:19:30;3.50;;;2.15;;
54705;SDS011;40603;48.774;8.916;2022-08-14T01:22:13;1.88;;;1.77;;
54705;SDS011;40603;48.774;8.916;2022-08-14T01:24:40;2.70;;;2.13;;
54705;SDS011;40603;48.774;8.916;2022-08-14T01:27:05;2.85;;;2.13;;
54705;SDS011;40603;48.774;8.916;2022-08-14T01:29:31;3.08;;;2.42;;
54705;SDS011;40603;48.774;8.916;2022-08-14T01:32:02;2.40;;;2.20;;
54705;SDS011;40603;48.774;8.916;2022-08-14T01:34:28;3.35;;;2.10;;
54705;SDS011;40603;48.774;8.916;2022-08-14T01:36:55;2.65;;;2.30;;
54705;SDS011;40603;48.774;8.916;2022-08-14T01:39:20;3.83;;;2.33;;
54705;SDS011;40603;48.774;8.916;2022-08-14T01:41:46;4.55;;;2.47;;
54705;SDS011;40603;48.774;8.916;2022-08-14T01:44:17;6.20;;;2.78;;
54705;SDS011;40603;48.774;8.916;2022-08-14T01:46:42;4.40;;;2.65;;
54705;SDS011;40603;48.774;8.916;2022-08-14T01:49:09;7.95;;;2.63;;
54705;SDS011;40603;48.774;8.916;2022-08-14T01:51:36;2.67;;;2.45;;
54705;SDS011;40603;48.774;8.916;2022-08-14T01:54:07;2.58;;;2.20;;
54705;SDS011;40603;48.774;8.916;2022-08-14T01:56:35;2.80;;;2.20;;
54705;SDS011;40603;48.774;8.916;2022-08-14T02:01:43;4.78;;;2.53;;
54705;SDS011;40603;48.774;8.916;2022-08-14T02:04:09;3.13;;;2.13;;
54705;SDS011;40603;48.774;8.916;2022-08-14T02:06:35;4.57;;;2.20;;
54705;SDS011;40603;48.774;8.916;2022-08-14T02:09:03;2.85;;;2.30;;
54705;SDS011;40603;48.774;8.916;2022-08-14T02:11:28;2.40;;;2.20;;
54705;SDS011;40603;48.774;8.916;2022-08-14T02:16:25;4.53;;;2.30;;
54705;SDS011;40603;48.774;8.916;2022-08-14T02:18:54;3.42;;;2.40;;
54705;SDS011;40603;48.774;8.916;2022-08-14T02:21:20;2.70;;;2.30;;
54705;SDS011;40603;48.774;8.916;2022-08-14T02:23:46;4.00;;;2.40;;
54705;SDS011;40603;48.774;8.916;2022-08-14T02:26:17;4.50;;;2.53;;
54705;SDS011;40603;48.774;8.916;2022-08-14T02:28:44;4.32;;;2.53;;
54705;SDS011;40603;48.774;8.916;2022-08-14T02:31:11;2.63;;;2.30;;
54705;SDS011;40603;48.774;8.916;2022-08-14T02:33:38;4.68;;;2.38;;
54705;SDS011;40603;48.774;8.916;2022-08-14T02:36:05;2.90;;;2.53;;
54705;SDS011;40603;48.774;8.916;2022-08-14T02:38:31;2.50;;;2.17;;
54705;SDS011;40603;48.774;8.916;2022-08-14T02:40:59;3.08;;;2.42;;
54705;SDS011;40603;48.774;8.916;2022-08-14T02:43:25;5.20;;;2.70;;
54705;SDS011;40603;48.774;8.916;2022-08-14T02:45:55;3.10;;;2.67;;
54705;SDS011;40603;48.774;8.916;2022-08-14T02:48:21;4.38;;;2.58;;
54705;SDS011;40603;48.774;8.916;2022-08-14T02:50:46;3.55;;;2.53;;
54705;SDS011;40603;48.774;8.916;2022-08-14T02:53:13;6.40;;;3.13;;
54705;SDS011;40603;48.774;8.916;2022-08-14T02:55:39;5.50;;;2.53;;
54705;SDS011;40603;48.774;8.916;2022-08-14T02:58:05;5.20;;;2.92;;
54705;SDS011;40603;48.774;8.916;2022-08-14T03:00:31;6.85;;;3.22;;
54705;SDS011;40603;48.774;8.916;2022-08-14T03:02:59;6.40;;;3.28;;
54705;SDS011;40603;48.774;8.916;2022-08-14T03:05:26;6.82;;;3.10;;
54705;SDS011;40603;48.774;8.916;2022-08-14T03:08:03;5.68;;;2.70;;
54705;SDS011;40603;48.774;8.916;2022-08-14T03:10:32;5.30;;;2.88;;
54705;SDS011;40603;48.774;8.916;2022-08-14T03:12:58;6.88;;;3.15;;
54705;SDS011;40603;48.774;8.916;2022-08-14T03:15:23;2.95;;;2.47;;
54705;SDS011;40603;48.774;8.916;2022-08-14T03:17:49;4.30;;;2.67;;
54705;SDS011;40603;48.774;8.916;2022-08-14T03:20:16;3.65;;;2.60;;
54705;SDS011;40603;48.774;8.916;2022-08-14T03:22:42;3.97;;;2.85;;
54705;SDS011;40603;48.774;8.916;2022-08-14T03:25:07;3.47;;;2.70;;
54705;SDS011;40603;48.774;8.916;2022-08-14T03:27:35;3.00;;;2.28;;
54705;SDS011;40603;48.774;8.916;2022-08-14T03:30:01;2.88;;;2.58;;
54705;SDS011;40603;48.774;8.916;2022-08-14T03:32:27;2.95;;;2.50;;
54705;SDS011;40603;48.774;8.916;2022-08-14T03:34:57;6.00;;;3.60;;
54705;SDS011;40603;48.774;8.916;2022-08-14T03:37:23;2.97;;;2.67;;
54705;SDS011;40603;48.774;8.916;2022-08-14T03:39:51;3.22;;;2.53;;
54705;SDS011;40603;48.774;8.916;2022-08-14T03:42:16;3.50;;;2.13;;
54705;SDS011;40603;48.774;8.916;2022-08-14T03:44:42;3.28;;;2.47;;
54705;SDS011;40603;48.774;8.916;2022-08-14T03:47:08;3.55;;;2.83;;
54705;SDS011;40603;48.774;8.916;2022-08-14T03:49:33;2.97;;;2.60;;
54705;SDS011;40603;48.774;8.916;2022-08-14T03:51:59;2.97;;;2.38;;
54705;SDS011;40603;48.774;8.916;2022-08-14T03:54:28;3.92;;;2.72;;
54705;SDS011;40603;48.774;8.916;2022-08-14T03:56:54;3.95;;;2.75;;
54705;SDS011;40603;48.774;8.916;2022-08-14T03:59:24;3.08;;;2.78;;
54705;SDS011;40603;48.774;8.916;2022-08-14T04:01:50;4.57;;;2.80;;
54705;SDS011;40603;48.774;8.916;2022-08-14T04:04:16;5.55;;;2.42;;
54705;SDS011;40603;48.774;8.916;2022-08-14T04:06:42;4.75;;;2.70;;
54705;SDS011;40603;48.774;8.916;2022-08-14T04:09:07;3.22;;;2.90;;
54705;SDS011;40603;48.774;8.916;2022-08-14T04:11:33;4.50;;;2.53;;
54705;SDS011;40603;48.774;8.916;2022-08-14T04:13:59;3.70;;;2.55;;
54705;SDS011;40603;48.774;8.916;2022-08-14T04:16:25;4.28;;;3.03;;
54705;SDS011;40603;48.774;8.916;2022-08-14T04:18:51;5.95;;;2.85;;
54705;SDS011;40603;48.774;8.916;2022-08-14T04:21:18;3.63;;;2.53;;
54705;SDS011;40603;48.774;8.916;2022-08-14T04:23:46;4.93;;;2.67;;
54705;SDS011;40603;48.774;8.916;2022-08-14T04:26:12;4.15;;;2.90;;
54705;SDS011;40603;48.774;8.916;2022-08-14T04:28:38;3.00;;;2.70;;
54705;SDS011;40603;48.774;8.916;2022-08-14T04:31:04;3.70;;;3.00;;
54705;SDS011;40603;48.774;8.916;2022-08-14T04:33:30;3.22;;;2.90;;
54705;SDS011;40603;48.774;8.916;2022-08-14T04:35:56;2.92;;;2.63;;
54705;SDS011;40603;48.774;8.916;2022-08-14T04:38:21;4.20;;;2.70;;
54705;SDS011;40603;48.774;8.916;2022-08-14T04:41:06;3.47;;;2.90;;
54705;SDS011;40603;48.774;8.916;2022-08-14T04:43:49;5.32;;;2.90;;
54705;SDS011;40603;48.774;8.916;2022-08-14T04:46:16;3.95;;;2.80;;
54705;SDS011;40603;48.774;8.916;2022-08-14T04:48:42;4.90;;;2.85;;
54705;SDS011;40603;48.774;8.916;2022-08-14T04:51:09;5.80;;;3.05;;
54705;SDS011;40603;48.774;8.916;2022-08-14T04:53:38;2.95;;;2.35;;
54705;SDS011;40603;48.774;8.916;2022-08-14T04:56:06;6.07;;;2.72;;
54705;SDS011;40603;48.774;8.916;2022-08-14T04:58:32;6.72;;;2.70;;
54705;SDS011;40603;48.774;8.916;2022-08-14T05:00:58;3.58;;;3.00;;
54705;SDS011;40603;48.774;8.916;2022-08-14T05:03:25;4.00;;;2.75;;
54705;SDS011;40603;48.774;8.916;2022-08-14T05:05:53;3.33;;;2.80;;
54705;SDS011;40603;48.774;8.916;2022-08-14T05:08:22;3.63;;;2.83;;
54705;SDS011;40603;48.774;8.916;2022-08-14T05:10:49;3.72;;;2.60;;
54705;SDS011;40603;48.774;8.916;2022-08-14T05:13:16;4.13;;;2.80;;
54705;SDS011;40603;48.774;8.916;2022-08-14T05:15:42;5.40;;;3.40;;
54705;SDS011;40603;48.774;8.916;2022-08-14T05:18:09;4.00;;;2.80;;
54705;SDS011;40603;48.774;8.916;2022-08-14T05:20:39;4.97;;;3.05;;
54705;SDS011;40603;48.774;8.916;2022-08-14T05:23:07;2.90;;;2.47;;
54705;SDS011;40603;48.774;8.916;2022-08-14T05:25:33;3.42;;;2.72;;
54705;SDS011;40603;48.774;8.916;2022-08-14T05:28:09;5.38;;;3.22;;
54705;SDS011;40603;48.774;8.916;2022-08-14T05:30:36;4.00;;;3.08;;
54705;SDS011;40603;48.774;8.916;2022-08-14T05:33:03;3.42;;;3.05;;
54705;SDS011;40603;48.774;8.916;2022-08-14T05:35:29;5.00;;;3.08;;
54705;SDS011;40603;48.774;8.916;2022-08-14T05:37:56;4.72;;;3.00;;
54705;SDS011;40603;48.774;8.916;2022-08-14T05:40:21;5.35;;;3.55;;
54705;SDS011;40603;48.774;8.916;2022-08-14T05:42:46;4.10;;;3.05;;
54705;SDS011;40603;48.774;8.916;2022-08-14T05:45:12;4.90;;;3.33;;
54705;SDS011;40603;48.774;8.916;2022-08-14T05:47:39;5.50;;;3.35;;
54705;SDS011;40603;48.774;8.916;2022-08-14T05:50:06;5.47;;;2.83;;
54705;SDS011;40603;48.774;8.916;2022-08-14T05:52:35;5.10;;;3.13;;
54705;SDS011;40603;48.774;8.916;2022-08-14T05:55:00;5.10;;;3.30;;
54705;SDS011;40603;48.774;8.916;2022-08-14T05:57:26;3.40;;;3.10;;
54705;SDS011;40603;48.774;8.916;2022-08-14T05:59:51;5.85;;;3.40;;
54705;SDS011;40603;48.774;8.916;2022-08-14T06:02:16;3.83;;;2.90;;
54705;SDS011;40603;48.774;8.916;2022-08-14T06:04:42;3.30;;;3.00;;
54705;SDS011;40603;48.774;8.916;2022-08-14T06:07:12;4.93;;;3.40;;
54705;SDS011;40603;48.774;8.916;2022-08-14T06:09:37;3.15;;;2.90;;
54705;SDS011;40603;48.774;8.916;2022-08-14T06:12:03;4.53;;;3.28;;
54705;SDS011;40603;48.774;8.916;2022-08-14T06:14:28;4.18;;;2.78;;
54705;SDS011;40603;48.774;8.916;2022-08-14T06:16:53;5.32;;;3.28;;
54705;SDS011;40603;48.774;8.916;2022-08-14T06:19:19;6.57;;;3.40;;
54705;SDS011;40603;48.774;8.916;2022-08-14T06:21:44;3.38;;;2.95;;
54705;SDS011;40603;48.774;8.916;2022-08-14T06:24:10;3.92;;;3.20;;
54705;SDS011;40603;48.774;8.916;2022-08-14T06:26:35;3.97;;;3.10;;
54705;SDS011;40603;48.774;8.916;2022-08-14T06:29:00;5.00;;;3.22;;
54705;SDS011;40603;48.774;8.916;2022-08-14T06:31:25;6.00;;;2.80;;
54705;SDS011;40603;48.774;8.916;2022-08-14T06:33:51;3.97;;;3.10;;
54705;SDS011;40603;48.774;8.916;2022-08-14T06:36:16;3.33;;;2.80;;
54705;SDS011;40603;48.774;8.916;2022-08-14T06:38:42;3.42;;;2.90;;
54705;SDS011;40603;48.774;8.916;2022-08-14T06:41:08;5.25;;;2.85;;
54705;SDS011;40603;48.774;8.916;2022-08-14T06:43:33;6.03;;;3.20;;
54705;SDS011;40603;48.774;8.916;2022-08-14T06:45:58;3.47;;;3.00;;
54705;SDS011;40603;48.774;8.916;2022-08-14T06:48:25;3.08;;;2.75;;
54705;SDS011;40603;48.774;8.916;2022-08-14T06:50:51;6.35;;;3.03;;
54705;SDS011;40603;48.774;8.916;2022-08-14T06:53:17;4.25;;;2.65;;
54705;SDS011;40603;48.774;8.916;2022-08-14T06:55:43;4.25;;;2.88;;
54705;SDS011;40603;48.774;8.916;2022-08-14T06:58:11;3.92;;;2.63;;
54705;SDS011;40603;48.774;8.916;2022-08-14T07:00:37;2.90;;;2.58;;
54705;SDS011;40603;48.774;8.916;2022-08-14T07:03:03;3.70;;;2.15;;
54705;SDS011;40603;48.774;8.916;2022-08-14T07:05:47;2.95;;;2.30;;
54705;SDS011;40603;48.774;8.916;2022-08-14T07:08:14;6.22;;;2.30;;
54705;SDS011;40603;48.774;8.916;2022-08-14T07:10:47;2.72;;;2.53;;
54705;SDS011;40603;48.774;8.916;2022-08-14T07:13:14;9.05;;;2.72;;
54705;SDS011;40603;48.774;8.916;2022-08-14T07:15:42;2.60;;;2.13;;
54705;SDS011;40603;48.774;8.916;2022-08-14T07:18:11;3.53;;;2.20;;
54705;SDS011;40603;48.774;8.916;2022-08-14T07:20:37;3.00;;;2.30;;
54705;SDS011;40603;48.774;8.916;2022-08-14T07:23:04;7.10;;;2.55;;
54705;SDS011;40603;48.774;8.916;2022-08-14T07:25:30;3.08;;;2.70;;
54705;SDS011;40603;48.774;8.916;2022-08-14T07:27:56;5.13;;;2.55;;
54705;SDS011;40603;48.774;8.916;2022-08-14T07:30:22;2.65;;;2.20;;
54705;SDS011;40603;48.774;8.916;2022-08-14T07:32:48;4.30;;;2.10;;
54705;SDS011;40603;48.774;8.916;2022-08-14T07:35:13;3.00;;;2.30;;
54705;SDS011;40603;48.774;8.916;2022-08-14T07:37:39;2.25;;;2.00;;
54705;SDS011;40603;48.774;8.916;2022-08-14T07:40:05;1.77;;;1.67;;
54705;SDS011;40603;48.774;8.916;2022-08-14T07:42:30;2.13;;;1.90;;
54705;SDS011;40603;48.774;8.916;2022-08-14T07:44:56;2.30;;;1.73;;
54705;SDS011;40603;48.774;8.916;2022-08-14T07:47:22;4.03;;;2.75;;
54705;SDS011;40603;48.774;8.916;2022-08-14T07:50:00;2.95;;;2.03;;
54705;SDS011;40603;48.774;8.916;2022-08-14T07:52:29;2.38;;;1.88;;
54705;SDS011;40603;48.774;8.916;2022-08-14T07:54:54;1.60;;;1.50;;
54705;SDS011;40603;48.774;8.916;2022-08-14T07:57:20;2.40;;;1.80;;
54705;SDS011;40603;48.774;8.916;2022-08-14T07:59:45;2.22;;;1.67;;
54705;SDS011;40603;48.774;8.916;2022-08-14T08:02:13;2.15;;;1.60;;
54705;SDS011;40603;48.774;8.916;2022-08-14T08:04:40;2.35;;;1.67;;
54705;SDS011;40603;48.774;8.916;2022-08-14T08:07:08;3.58;;;1.92;;
54705;SDS011;40603;48.774;8.916;2022-08-14T08:09:34;1.90;;;1.70;;
54705;SDS011;40603;48.774;8.916;2022-08-14T08:12:00;2.05;;;1.10;;
54705;SDS011;40603;48.774;8.916;2022-08-14T08:14:26;1.70;;;1.50;;
54705;SDS011;40603;48.774;8.916;2022-08-14T08:16:52;3.05;;;1.55;;
54705;SDS011;40603;48.774;8.916;2022-08-14T08:19:18;3.05;;;1.83;;
54705;SDS011;40603;48.774;8.916;2022-08-14T08:21:43;3.33;;;1.60;;
54705;SDS011;40603;48.774;8.916;2022-08-14T08:24:10;1.80;;;1.58;;
54705;SDS011;40603;48.774;8.916;2022-08-14T08:26:35;1.75;;;1.50;;
54705;SDS011;40603;48.774;8.916;2022-08-14T08:29:00;1.60;;;1.50;;
54705;SDS011;40603;48.774;8.916;2022-08-14T08:31:25;1.58;;;1.45;;
54705;SDS011;40603;48.774;8.916;2022-08-14T08:33:51;1.60;;;1.50;;
54705;SDS011;40603;48.774;8.916;2022-08-14T08:36:17;1.83;;;1.40;;
54705;SDS011;40603;48.774;8.916;2022-08-14T08:38:42;1.70;;;1.60;;
54705;SDS011;40603;48.774;8.916;2022-08-14T08:41:09;1.88;;;1.77;;
54705;SDS011;40603;48.774;8.916;2022-08-14T08:43:34;3.58;;;1.33;;
54705;SDS011;40603;48.774;8.916;2022-08-14T08:48:46;1.73;;;1.58;;
54705;SDS011;40603;48.774;8.916;2022-08-14T08:51:25;1.40;;;1.30;;
54705;SDS011;40603;48.774;8.916;2022-08-14T08:53:56;2.08;;;1.38;;
54705;SDS011;40603;48.774;8.916;2022-08-14T08:59:00;2.05;;;1.65;;
54705;SDS011;40603;48.774;8.916;2022-08-14T09:01:29;2.10;;;1.70;;
54705;SDS011;40603;48.774;8.916;2022-08-14T09:04:01;2.95;;;1.52;;
54705;SDS011;40603;48.774;8.916;2022-08-14T09:06:27;2.38;;;1.58;;
54705;SDS011;40603;48.774;8.916;2022-08-14T09:08:54;5.20;;;1.42;;
54705;SDS011;40603;48.774;8.916;2022-08-14T09:11:19;1.80;;;1.55;;
54705;SDS011;40603;48.774;8.916;2022-08-14T09:13:51;2.28;;;1.67;;
54705;SDS011;40603;48.774;8.916;2022-08-14T09:16:21;2.13;;;1.80;;
54705;SDS011;40603;48.774;8.916;2022-08-14T09:18:47;1.73;;;1.60;;
54705;SDS011;40603;48.774;8.916;2022-08-14T09:21:12;7.07;;;2.55;;
54705;SDS011;40603;48.774;8.916;2022-08-14T09:23:38;2.20;;;1.80;;
54705;SDS011;40603;48.774;8.916;2022-08-14T09:26:04;2.15;;;1.58;;
54705;SDS011;40603;48.774;8.916;2022-08-14T09:28:30;3.63;;;1.70;;
54705;SDS011;40603;48.774;8.916;2022-08-14T09:30:55;3.22;;;1.55;;
54705;SDS011;40603;48.774;8.916;2022-08-14T09:39:26;3.20;;;1.60;;
54705;SDS011;40603;48.774;8.916;2022-08-14T09:45:02;2.10;;;1.70;;
54705;SDS011;40603;48.774;8.916;2022-08-14T09:47:41;2.67;;;1.65;;
54705;SDS011;40603;48.774;8.916;2022-08-14T09:50:23;3.28;;;1.50;;
54705;SDS011;40603;48.774;8.916;2022-08-14T09:52:57;1.50;;;1.40;;
54705;SDS011;40603;48.774;8.916;2022-08-14T09:55:28;3.42;;;1.60;;
54705;SDS011;40603;48.774;8.916;2022-08-14T09:58:13;2.92;;;1.60;;
54705;SDS011;40603;48.774;8.916;2022-08-14T10:00:46;2.65;;;1.85;;
54705;SDS011;40603;48.774;8.916;2022-08-14T10:03:29;4.85;;;1.63;;
54705;SDS011;40603;48.774;8.916;2022-08-14T10:06:16;4.00;;;1.77;;
54705;SDS011;40603;48.774;8.916;2022-08-14T10:08:50;3.70;;;1.83;;
54705;SDS011;40603;48.774;8.916;2022-08-14T10:13:48;6.32;;;1.60;;
54705;SDS011;40603;48.774;8.916;2022-08-14T10:16:17;2.55;;;1.88;;
54705;SDS011;40603;48.774;8.916;2022-08-14T10:18:42;1.80;;;1.70;;
54705;SDS011;40603;48.774;8.916;2022-08-14T10:21:08;1.80;;;1.45;;
54705;SDS011;40603;48.774;8.916;2022-08-14T10:23:40;2.85;;;1.60;;
54705;SDS011;40603;48.774;8.916;2022-08-14T10:26:09;3.67;;;2.00;;
54705;SDS011;40603;48.774;8.916;2022-08-14T10:28:39;1.50;;;1.40;;
54705;SDS011;40603;48.774;8.916;2022-08-14T10:31:18;4.40;;;1.70;;
54705;SDS011;40603;48.774;8.916;2022-08-14T10:33:56;1.60;;;1.50;;
54705;SDS011;40603;48.774;8.916;2022-08-14T10:36:25;3.30;;;2.15;;
54705;SDS011;40603;48.774;8.916;2022-08-14T10:38:59;2.85;;;1.75;;
54705;SDS011;40603;48.774;8.916;2022-08-14T10:41:36;4.07;;;1.80;;
54705;SDS011;40603;48.774;8.916;2022-08-14T10:46:51;2.42;;;1.90;;
54705;SDS011;40603;48.774;8.916;2022-08-14T10:49:26;2.25;;;1.90;;
54705;SDS011;40603;48.774;8.916;2022-08-14T10:51:56;5.80;;;2.53;;
54705;SDS011;40603;48.774;8.916;2022-08-14T10:54:41;4.18;;;1.67;;
54705;SDS011;40603;48.774;8.916;2022-08-14T10:59:51;7.28;;;2.20;;
54705;SDS011;40603;48.774;8.916;2022-08-14T11:04:59;2.22;;;2.03;;
54705;SDS011;40603;48.774;8.916;2022-08-14T11:09:54;2.97;;;2.00;;
54705;SDS011;40603;48.774;8.916;2022-08-14T11:12:21;2.67;;;1.90;;
54705;SDS011;40603;48.774;8.916;2022-08-14T11:14:54;3.65;;;1.90;;
54705;SDS011;40603;48.774;8.916;2022-08-14T11:17:23;2.58;;;2.20;;
54705;SDS011;40603;48.774;8.916;2022-08-14T11:19:50;1.70;;;1.60;;
54705;SDS011;40603;48.774;8.916;2022-08-14T11:22:20;3.53;;;1.83;;
54705;SDS011;40603;48.774;8.916;2022-08-14T11:24:45;3.05;;;2.13;;
54705;SDS011;40603;48.774;8.916;2022-08-14T11:27:11;2.97;;;1.80;;
54705;SDS011;40603;48.774;8.916;2022-08-14T11:29:39;3.50;;;1.65;;
54705;SDS011;40603;48.774;8.916;2022-08-14T11:32:06;2.50;;;1.90;;
54705;SDS011;40603;48.774;8.916;2022-08-14T11:34:35;4.05;;;1.98;;
54705;SDS011;40603;48.774;8.916;2022-08-14T11:37:10;3.80;;;1.73;;
54705;SDS011;40603;48.774;8.916;2022-08-14T11:39:35;1.50;;;1.40;;
54705;SDS011;40603;48.774;8.916;2022-08-14T11:42:01;2.47;;;1.77;;
54705;SDS011;40603;48.774;8.916;2022-08-14T11:44:30;5.50;;;2.03;;
54705;SDS011;40603;48.774;8.916;2022-08-14T11:46:55;5.43;;;2.22;;
54705;SDS011;40603;48.774;8.916;2022-08-14T11:49:24;1.80;;;1.70;;
54705;SDS011;40603;48.774;8.916;2022-08-14T11:51:51;2.10;;;1.90;;
54705;SDS011;40603;48.774;8.916;2022-08-14T11:54:18;2.88;;;1.60;;
54705;SDS011;40603;48.774;8.916;2022-08-14T11:56:43;1.63;;;1.52;;
54705;SDS011;40603;48.774;8.916;2022-08-14T11:59:14;2.75;;;1.50;;
54705;SDS011;40603;48.774;8.916;2022-08-14T12:01:41;3.75;;;1.63;;
54705;SDS011;40603;48.774;8.916;2022-08-14T12:04:10;3.00;;;1.60;;
54705;SDS011;40603;48.774;8.916;2022-08-14T12:06:44;2.47;;;1.60;;
54705;SDS011;40603;48.774;8.916;2022-08-14T12:09:35;3.47;;;1.90;;
54705;SDS011;40603;48.774;8.916;2022-08-14T12:12:14;2.15;;;1.70;;
54705;SDS011;40603;48.774;8.916;2022-08-14T12:14:46;2.47;;;1.80;;
54705;SDS011;40603;48.774;8.916;2022-08-14T12:17:12;2.05;;;1.80;;
54705;SDS011;40603;48.774;8.916;2022-08-14T12:19:44;1.70;;;1.40;;
54705;SDS011;40603;48.774;8.916;2022-08-14T12:22:31;2.20;;;1.63;;
54705;SDS011;40603;48.774;8.916;2022-08-14T12:24:58;1.77;;;1.67;;
54705;SDS011;40603;48.774;8.916;2022-08-14T12:27:33;4.88;;;1.60;;
54705;SDS011;40603;48.774;8.916;2022-08-14T12:29:59;1.70;;;1.60;;
54705;SDS011;40603;48.774;8.916;2022-08-14T12:32:25;2.47;;;1.60;;
54705;SDS011;40603;48.774;8.916;2022-08-14T12:34:51;2.90;;;1.70;;
54705;SDS011;40603;48.774;8.916;2022-08-14T12:37:18;3.95;;;1.60;;
54705;SDS011;40603;48.774;8.916;2022-08-14T12:39:53;2.65;;;1.40;;
54705;SDS011;40603;48.774;8.916;2022-08-14T12:42:19;4.05;;;1.55;;
54705;SDS011;40603;48.774;8.916;2022-08-14T12:44:47;3.90;;;2.15;;
54705;SDS011;40603;48.774;8.916;2022-08-14T12:47:14;1.75;;;1.35;;
54705;SDS011;40603;48.774;8.916;2022-08-14T12:49:51;1.75;;;1.40;;
54705;SDS011;40603;48.774;8.916;2022-08-14T12:54:57;1.83;;;1.38;;
54705;SDS011;40603;48.774;8.916;2022-08-14T12:57:31;2.03;;;1.48;;
54705;SDS011;40603;48.774;8.916;2022-08-14T13:00:20;2.38;;;1.58;;
54705;SDS011;40603;48.774;8.916;2022-08-14T13:02:48;1.65;;;1.55;;
54705;SDS011;40603;48.774;8.916;2022-08-14T13:05:16;1.50;;;1.40;;
54705;SDS011;40603;48.774;8.916;2022-08-14T13:10:12;2.22;;;1.55;;
54705;SDS011;40603;48.774;8.916;2022-08-14T13:12:40;5.35;;;1.70;;
54705;SDS011;40603;48.774;8.916;2022-08-14T13:15:07;1.50;;;1.40;;
54705;SDS011;40603;48.774;8.916;2022-08-14T13:17:38;2.30;;;1.88;;
54705;SDS011;40603;48.774;8.916;2022-08-14T13:20:11;2.13;;;1.83;;
54705;SDS011;40603;48.774;8.916;2022-08-14T13:22:41;2.33;;;1.88;;
54705;SDS011;40603;48.774;8.916;2022-08-14T13:25:09;1.70;;;1.60;;
54705;SDS011;40603;48.774;8.916;2022-08-14T13:27:38;2.13;;;1.88;;
54705;SDS011;40603;48.774;8.916;2022-08-14T13:30:08;3.55;;;1.70;;
54705;SDS011;40603;48.774;8.916;2022-08-14T13:35:08;2.08;;;1.13;;
54705;SDS011;40603;48.774;8.916;2022-08-14T13:37:33;1.50;;;1.40;;
54705;SDS011;40603;48.774;8.916;2022-08-14T13:39:59;1.38;;;1.10;;
54705;SDS011;40603;48.774;8.916;2022-08-14T13:42:25;2.28;;;1.40;;
54705;SDS011;40603;48.774;8.916;2022-08-14T13:44:52;1.50;;;1.40;;
54705;SDS011;40603;48.774;8.916;2022-08-14T13:47:21;2.35;;;1.40;;
54705;SDS011;40603;48.774;8.916;2022-08-14T13:49:47;1.42;;;1.30;;
54705;SDS011;40603;48.774;8.916;2022-08-14T13:52:18;2.30;;;1.33;;
54705;SDS011;40603;48.774;8.916;2022-08-14T13:54:46;1.77;;;1.45;;
54705;SDS011;40603;48.774;8.916;2022-08-14T13:57:13;1.40;;;1.30;;
54705;SDS011;40603;48.774;8.916;2022-08-14T13:59:42;1.27;;;1.03;;
54705;SDS011;40603;48.774;8.916;2022-08-14T14:02:09;1.38;;;1.27;;
54705;SDS011;40603;48.774;8.916;2022-08-14T14:04:37;1.40;;;1.30;;
54705;SDS011;40603;48.774;8.916;2022-08-14T14:07:04;3.17;;;1.38;;
54705;SDS011;40603;48.774;8.916;2022-08-14T14:09:35;4.72;;;1.30;;
54705;SDS011;40603;48.774;8.916;2022-08-14T14:12:03;2.30;;;1.30;;
54705;SDS011;40603;48.774;8.916;2022-08-14T14:14:31;2.15;;;1.20;;
54705;SDS011;40603;48.774;8.916;2022-08-14T14:16:57;1.88;;;1.40;;
54705;SDS011;40603;48.774;8.916;2022-08-14T14:19:24;1.63;;;1.40;;
54705;SDS011;40603;48.774;8.916;2022-08-14T14:21:51;1.42;;;1.15;;
54705;SDS011;40603;48.774;8.916;2022-08-14T14:24:19;3.60;;;1.40;;
54705;SDS011;40603;48.774;8.916;2022-08-14T14:26:45;1.48;;;1.17;;
54705;SDS011;40603;48.774;8.916;2022-08-14T14:29:11;1.85;;;1.23;;
54705;SDS011;40603;48.774;8.916;2022-08-14T14:31:38;1.13;;;1.05;;
54705;SDS011;40603;48.774;8.916;2022-08-14T14:34:04;1.33;;;1.20;;
54705;SDS011;40603;48.774;8.916;2022-08-14T14:36:32;1.30;;;1.20;;
54705;SDS011;40603;48.774;8.916;2022-08-14T14:38:58;1.20;;;1.10;;
54705;SDS011;40603;48.774;8.916;2022-08-14T14:41:27;1.35;;;1.25;;
54705;SDS011;40603;48.774;8.916;2022-08-14T14:43:54;1.17;;;1.08;;
54705;SDS011;40603;48.774;8.916;2022-08-14T14:46:21;2.55;;;1.33;;
54705;SDS011;40603;48.774;8.916;2022-08-14T14:48:47;1.25;;;1.15;;
54705;SDS011;40603;48.774;8.916;2022-08-14T14:51:13;1.17;;;1.08;;
54705;SDS011;40603;48.774;8.916;2022-08-14T14:53:40;3.33;;;1.25;;
54705;SDS011;40603;48.774;8.916;2022-08-14T14:56:07;4.35;;;1.40;;
54705;SDS011;40603;48.774;8.916;2022-08-14T14:58:36;2.75;;;1.25;;
54705;SDS011;40603;48.774;8.916;2022-08-14T15:01:03;3.95;;;1.48;;
54705;SDS011;40603;48.774;8.916;2022-08-14T15:03:29;1.50;;;1.40;;
54705;SDS011;40603;48.774;8.916;2022-08-14T15:05:54;1.80;;;1.35;;
54705;SDS011;40603;48.774;8.916;2022-08-14T15:08:21;1.48;;;1.20;;
54705;SDS011;40603;48.774;8.916;2022-08-14T15:10:46;1.38;;;1.13;;
54705;SDS011;40603;48.774;8.916;2022-08-14T15:13:11;1.70;;;1.30;;
54705;SDS011;40603;48.774;8.916;2022-08-14T15:15:37;2.28;;;1.40;;
54705;SDS011;40603;48.774;8.916;2022-08-14T15:18:03;1.25;;;1.15;;
54705;SDS011;40603;48.774;8.916;2022-08-14T15:20:30;1.67;;;1.40;;
54705;SDS011;40603;48.774;8.916;2022-08-14T15:22:55;2.08;;;1.33;;
54705;SDS011;40603;48.774;8.916;2022-08-14T15:25:21;1.52;;;1.25;;
54705;SDS011;40603;48.774;8.916;2022-08-14T15:27:46;1.52;;;1.40;;
54705;SDS011;40603;48.774;8.916;2022-08-14T15:30:15;2.72;;;1.33;;
54705;SDS011;40603;48.774;8.916;2022-08-14T15:32:41;1.63;;;1.40;;